Latest Weather Observations for Adelaide Airport

IDS60901

Issued at 12:31 pm CDT Friday 18 October 2019 (issued every 10 minutes, with the page automatically refreshed every 10 minutes)

About weather observations | Map of Adelaide area stations | Latest observations for Adelaide area | Other Formats
Station Details ID: 023034 Name: ADELAIDE AIRPORT Lat: -34.95 Lon: 138.52 Height: 2.0 m
Data from the previous 72 hours. | See also: Recent months at Adelaide Airport
Date/Time
CDT
Temp
°C
App
Temp
°C
Dew
Point
°C
Rel
Hum
%
Delta-T
°C
Wind Press
QNH
hPa
Press
MSL
hPa
Rain since
9am
mm
Dir  Spd
km/h
Gust
km/h
Spd
kts
Gust
kts
18/12:00pm 17.0 11.7 8.4 57 4.4 NW 26 37 14 20 1017.4 1017.4 0.0
18/11:30am 16.7 10.9 8.0 56 4.4 NW 28 37 15 20 1017.4 1017.4 0.0
18/11:00am 16.3 10.4 7.7 56 4.3 NW 28 35 15 19 1017.9 1017.9 0.0
18/10:30am 15.6 9.4 8.0 60 3.8 NW 30 39 16 21 1017.9 1017.9 0.0
18/10:00am 15.5 10.5 8.1 61 3.7 NW 24 37 13 20 1017.7 1017.7 0.0
18/09:30am 14.9 10.0 8.6 66 3.2 NNW 24 35 13 19 1017.7 1017.7 0.0
18/09:00am 13.9 10.4 7.1 63 3.3 N 15 19 8 10 1017.8 1017.8 0.0
18/08:30am 11.8 8.0 5.8 66 2.8 N 15 19 8 10 1017.7 1017.7 0.0
18/08:00am 10.7 6.5 5.5 70 2.4 N 17 26 9 14 1017.7 1017.7 0.0
18/07:30am 10.0 6.5 5.4 73 2.1 NNE 13 19 7 10 1017.7 1017.7 0.0
18/07:00am 9.0 5.3 4.5 73 2.0 N 13 17 7 9 1017.4 1017.4 0.0
18/06:30am 8.6 3.6 4.5 75 1.8 NNE 20 28 11 15 1016.8 1016.8 0.0
18/06:00am 8.7 4.6 4.6 75 1.8 N 15 20 8 11 1016.6 1016.6 0.0
18/05:30am 8.6 4.7 5.2 79 1.5 NNE 15 19 8 10 1016.5 1016.5 0.0
18/05:00am 8.3 4.4 5.4 82 1.3 NNE 15 17 8 9 1016.5 1016.5 0.0
18/04:30am 8.5 5.0 5.6 82 1.3 NNE 13 15 7 8 1016.5 1016.5 0.0
18/04:00am 8.7 4.9 5.8 82 1.3 NNE 15 15 8 8 1016.7 1016.7 0.0
18/03:30am 8.5 5.1 5.9 84 1.2 NE 13 15 7 8 1016.9 1016.9 0.0
18/03:00am 8.5 4.7 5.9 84 1.2 NE 15 17 8 9 1017.3 1017.3 0.0
18/02:30am 8.7 5.3 6.1 84 1.2 NE 13 15 7 8 1017.8 1017.8 0.0
18/02:00am 9.6 7.1 6.6 81 1.4 NE 9 11 5 6 1018.3 1018.3 0.0
18/01:30am 9.4 6.9 6.6 83 1.3 NE 9 11 5 6 1018.8 1018.8 0.0
18/01:00am 9.2 6.7 6.6 84 1.2 NE 9 11 5 6 1019.0 1019.0 0.0
18/12:30am 9.1 7.0 6.5 84 1.2 E 7 7 4 4 1019.2 1019.2 0.0
18/12:00am 9.2 8.5 6.8 85 1.1 CALM 0 0 0 0 1019.3 1019.3 0.0
 
Date/Time
CDT
Temp
°C
App
Temp
°C
Dew
Point
°C
Rel
Hum
%
Delta-T
°C
Wind Press
QNH
hPa
Press
MSL
hPa
Rain since
9am
mm
Dir  Spd
km/h
Gust
km/h
Spd
kts
Gust
kts
17/11:30pm 9.7 8.9 6.7 81 1.4 CALM 0 0 0 0 1019.1 1019.1 0.0
17/11:00pm 9.9 9.1 6.5 79 1.6 CALM 0 0 0 0 1019.0 1019.0 0.0
17/10:30pm 10.7 9.9 6.7 76 1.9 CALM 0 0 0 0 1019.1 1019.1 0.0
17/10:00pm 11.1 10.3 6.4 73 2.2 CALM 0 0 0 0 1019.1 1019.1 0.0
17/09:30pm 11.5 10.7 6.6 72 2.3 CALM 0 0 0 0 1019.0 1019.0 0.0
17/09:00pm 11.9 11.2 7.1 72 2.3 CALM 0 0 0 0 1018.7 1018.7 0.0
17/08:30pm 12.5 11.7 6.4 66 2.9 CALM 0 0 0 0 1018.6 1018.6 0.0
17/08:00pm 12.5 11.8 6.9 68 2.7 CALM 0 0 0 0 1018.6 1018.6 0.0
17/07:30pm 13.4 11.3 6.0 61 3.5 SW 6 11 3 6 1018.9 1018.9 0.0
17/07:00pm 14.3 12.0 5.6 56 4.1 WSW 7 13 4 7 1019.0 1019.0 0.0
17/06:30pm 14.8 12.0 5.2 52 4.5 WSW 9 15 5 8 1019.2 1019.2 0.0
17/06:00pm 15.2 12.3 4.4 48 5.0 WSW 9 15 5 8 1019.1 1019.1 0.0
17/05:30pm 14.8 11.1 4.7 51 4.7 WSW 13 17 7 9 1019.1 1019.1 0.0
17/05:00pm 15.1 11.3 4.0 47 5.1 SW 13 24 7 13 1018.9 1018.9 0.0
17/04:30pm 15.4 11.2 3.9 46 5.3 SW 15 22 8 12 1018.8 1018.8 0.0
17/04:00pm 15.1 10.6 4.3 48 5.0 SW 17 24 9 13 1018.9 1018.9 0.0
17/03:30pm 15.2 10.3 4.1 47 5.1 SW 19 28 10 15 1018.8 1018.8 0.0
17/03:00pm 15.5 10.6 4.3 47 5.2 SSW 19 32 10 17 1019.0 1019.0 0.0
17/02:30pm 16.0 11.1 3.9 44 5.6 SW 19 28 10 15 1019.3 1019.3 0.0
17/02:00pm 16.1 11.3 2.8 41 6.0 SW 17 28 9 15 1019.6 1019.6 0.0
17/01:30pm 15.9 10.9 3.4 43 5.7 SW 19 26 10 14 1019.9 1019.9 0.0
17/01:00pm 16.0 9.7 3.8 44 5.6 WSW 26 35 14 19 1020.1 1020.1 0.0
17/12:30pm 15.2 8.4 3.3 45 5.4 WSW 28 37 15 20 1020.0 1020.0 0.0
17/12:00pm 15.1 7.7 1.9 41 5.8 WSW 30 37 16 20 1020.0 1020.0 0.0
17/11:30am 14.6 7.5 1.1 40 5.8 WSW 28 37 15 20 1020.0 1020.0 0.0
17/11:00am 14.8 7.3 1.4 40 5.8 SW 30 37 16 20 1020.0 1020.0 0.0
17/10:30am 14.7 7.6 3.4 46 5.1 SW 30 41 16 22 1019.9 1019.9 0.0
17/10:00am 13.8 6.3 3.3 49 4.7 SW 32 43 17 23 1019.6 1019.6 0.0
17/09:30am 14.0 6.4 4.1 51 4.5 SW 33 41 18 22 1019.2 1019.2 0.0
17/09:00am 13.4 5.2 2.7 48 4.7 SW 35 46 19 25 1018.9 1018.9 5.2
17/08:30am 12.7 4.3 3.5 53 4.1 SW 37 48 20 26 1018.4 1018.4 5.2
17/08:00am 12.7 5.2 4.6 58 3.7 SW 33 44 18 24 1018.1 1018.1 5.2
17/07:30am 12.2 4.6 3.9 57 3.7 SW 33 46 18 25 1017.8 1017.8 5.2
17/07:00am 12.0 4.1 4.5 60 3.4 SW 35 50 19 27 1017.5 1017.5 5.2
17/06:30am 12.0 4.6 4.0 58 3.6 WSW 32 41 17 22 1017.2 1017.2 5.2
17/06:00am 11.9 4.4 3.5 56 3.7 SW 32 41 17 22 1016.8 1016.8 5.2
17/05:30am 11.7 4.3 4.1 59 3.4 SW 32 43 17 23 1016.4 1016.4 5.2
17/05:00am 11.8 4.0 4.8 62 3.2 WSW 35 46 19 25 1016.2 1016.2 5.2
17/04:30am 12.0 4.1 4.2 59 3.5 SW 35 46 19 25 1016.2 1016.2 5.2
17/04:00am 12.2 4.3 4.2 58 3.6 SW 35 50 19 27 1016.1 1016.1 5.2
17/03:30am 12.2 4.4 4.8 60 3.4 SW 35 46 19 25 1016.0 1016.0 5.2
17/03:00am 12.3 3.4 4.9 60 3.4 WSW 41 50 22 27 1016.0 1016.0 5.2
17/02:30am 12.5 4.9 5.9 64 3.1 SW 35 48 19 26 1015.8 1015.8 5.2
17/02:00am 12.6 4.7 6.3 65 3.0 SW 37 52 20 28 1016.1 1016.1 5.2
17/01:30am 12.4 4.0 5.5 63 3.2 SW 39 50 21 27 1016.2 1016.2 5.2
17/01:00am 12.4 4.7 7.0 69 2.6 WSW 37 56 20 30 1016.1 1016.1 5.2
17/12:56am 12.3 5.0 7.3 71 2.4 WSW 35 56 19 30 1016.2 1016.2 5.2
17/12:30am 11.4 4.5 7.2 75 2.0 W 33 46 18 25 1016.2 1016.2 5.2
17/12:21am 11.0 4.3 7.2 77 1.8 W 32 39 17 21 1016.2 1016.2 5.2
17/12:00am 10.0 2.3 7.0 81 1.4 W 37 69 20 37 1016.4 1016.4 4.0
 
Date/Time
CDT
Temp
°C
App
Temp
°C
Dew
Point
°C
Rel
Hum
%
Delta-T
°C
Wind Press
QNH
hPa
Press
MSL
hPa
Rain since
9am
mm
Dir  Spd
km/h
Gust
km/h
Spd
kts
Gust
kts
16/11:30pm 13.1 5.0 5.1 58 3.7 W 37 50 20 27 1015.8 1015.8 1.6
16/11:00pm 12.9 6.3 6.1 63 3.2 W 30 39 16 21 1015.8 1015.8 1.6
16/10:38pm 11.7 5.1 7.6 76 2.0 W 32 41 17 22 1015.8 1015.8 1.6
16/10:30pm 11.8 5.1 8.1 78 1.8 W 33 52 18 28 1015.8 1015.8 1.2
16/10:24pm 11.5 4.0 7.8 78 1.8 WSW 37 52 20 28 1015.8 1015.8 1.2
16/10:00pm 12.9 5.5 6.9 67 2.9 WSW 35 48 19 26 1015.6 1015.6 1.0
16/09:30pm 13.5 6.6 6.6 63 3.3 WSW 32 44 17 24 1015.5 1015.5 1.0
16/09:00pm 13.5 6.9 7.6 67 2.9 WSW 32 41 17 22 1015.4 1015.4 1.0
16/08:30pm 13.5 6.3 9.2 75 2.2 WSW 37 54 20 29 1015.1 1015.1 1.0
16/08:00pm 13.3 5.4 7.8 69 2.7 W 39 57 21 31 1014.6 1014.6 1.0
16/07:52pm 13.1 6.2 8.9 75 2.1 W 35 46 19 25 1014.7 1014.7 1.0
16/07:37pm 12.9 5.1 11.0 88 1.0 W 43 59 23 32 1014.6 1014.6 0.6
16/07:30pm 13.5 8.6 9.8 78 1.9 WNW 26 50 14 27 1014.3 1014.3 0.6
16/07:00pm 13.8 9.7 10.1 78 1.9 W 22 32 12 17 1014.1 1014.1 0.6
16/06:56pm 13.5 8.1 9.6 77 2.0 W 28 35 15 19 1014.1 1014.1 0.6
16/06:44pm 13.4 7.6 10.7 84 1.4 WSW 32 41 17 22 1014.2 1014.2 0.4
16/06:30pm 13.6 8.3 11.1 85 1.3 WSW 30 50 16 27 1014.0 1014.0 0.2
16/06:00pm 16.1 12.0 8.7 61 3.8 WSW 20 28 11 15 1013.5 1013.5 0.0
16/05:30pm 16.1 10.5 8.7 61 3.8 WSW 28 33 15 18 1013.6 1013.6 0.0
16/05:00pm 16.3 10.2 8.4 59 4.0 SW 30 33 16 18 1013.4 1013.4 0.0
16/04:30pm 16.5 10.8 8.2 58 4.2 SW 28 35 15 19 1013.1 1013.1 0.0
16/04:00pm 16.5 10.6 7.3 54 4.6 SW 28 35 15 19 1013.1 1013.1 0.0
16/03:30pm 17.1 11.7 7.8 54 4.7 SW 26 33 14 18 1013.2 1013.2 0.0
16/03:00pm 16.6 10.7 5.9 49 5.2 SW 26 33 14 18 1013.2 1013.2 0.0
16/02:30pm 16.5 10.6 7.3 54 4.6 SW 28 35 15 19 1013.5 1013.5 0.0
16/02:00pm 16.4 11.4 6.6 52 4.8 SW 22 35 12 19 1013.8 1013.8 0.0
16/01:30pm 16.3 11.2 7.5 56 4.4 WSW 24 32 13 17 1014.0 1014.0 0.0
16/01:00pm 15.7 10.7 8.2 61 3.8 WSW 24 30 13 16 1014.0 1014.0 0.0
16/12:30pm 15.4 11.2 8.3 62 3.6 SW 20 32 11 17 1014.2 1014.2 0.0
16/12:00pm 15.8 11.1 9.4 65 3.3 SW 24 32 13 17 1014.1 1014.1 0.0
16/11:30am 15.2 10.2 9.6 69 2.9 SW 26 32 14 17 1014.1 1014.1 0.0
16/11:00am 15.6 11.0 11.1 74 2.4 SW 26 33 14 18 1014.1 1014.1 0.0
16/10:30am 15.2 11.1 11.3 77 2.1 SW 24 30 13 16 1013.9 1013.9 0.0
16/10:00am 14.7 11.6 11.7 82 1.6 SW 19 26 10 14 1014.0 1014.0 0.0
16/09:35am 13.8 10.6 11.9 88 1.0 SW 20 28 11 15 1014.0 1014.0 0.0
16/09:30am 13.9 10.6 11.7 86 1.2 SW 20 28 11 15 1014.0 1014.0 0.0
16/09:00am 13.8 11.2 12.1 89 0.9 SW 17 20 9 11 1014.0 1014.0 5.4
16/08:55am 13.3 10.6 11.8 91 0.8 WSW 17 26 9 14 1014.2 1014.2 5.4
16/08:51am 13.1 9.8 11.6 91 0.8 WSW 20 30 11 16 1014.3 1014.3 5.4
16/08:30am 13.5 11.7 12.0 91 0.8 WSW 13 17 7 9 1014.1 1014.1 5.4
16/08:00am 13.2 11.0 12.1 93 0.6 WSW 15 19 8 10 1013.9 1013.9 5.4
16/07:56am 13.3 11.1 12.0 92 0.7 WSW 15 19 8 10 1014.0 1014.0 5.4
16/07:30am 13.3 12.7 12.4 94 0.5 NW 7 9 4 5 1013.6 1013.6 5.2
16/07:25am 13.3 12.7 12.4 94 0.5 NW 7 9 4 5 1013.5 1013.5 5.2
16/07:00am 13.3 14.1 12.4 94 0.5 CALM 0 0 0 0 1013.0 1013.0 5.2
16/06:33am 13.2 13.9 12.3 94 0.5 CALM 0 6 0 3 1012.8 1012.8 5.2
16/06:30am 13.2 13.5 12.3 94 0.5 SE 2 6 1 3 1012.7 1012.7 5.2
16/06:25am 13.2 13.5 12.3 94 0.5 SE 2 6 1 3 1012.6 1012.6 5.2
16/06:04am 13.2 12.8 12.5 95 0.4 SSW 6 7 3 4 1012.7 1012.7 5.0
16/06:00am 13.2 12.8 12.5 95 0.4 SSW 6 7 3 4 1012.8 1012.8 4.8
16/05:48am 13.2 14.0 12.5 95 0.4 CALM 0 0 0 0 1012.5 1012.5 4.6
16/05:30am 13.3 14.0 12.2 93 0.6 CALM 0 0 0 0 1012.3 1012.3 4.2
16/05:15am 13.2 13.5 12.1 93 0.6 ESE 2 7 1 4 1012.2 1012.2 4.2
16/05:00am 13.2 13.5 12.3 94 0.5 ESE 2 7 1 4 1012.4 1012.4 4.2
16/04:30am 13.3 13.3 12.4 94 0.5 SE 4 9 2 5 1012.1 1012.1 4.2
16/04:17am 13.3 12.3 12.4 94 0.5 ESE 9 11 5 6 1012.2 1012.2 4.2
16/04:00am 13.5 12.8 12.0 91 0.8 SSE 7 11 4 6 1012.4 1012.4 3.8
16/03:30am 13.6 12.4 11.5 87 1.1 SSW 9 11 5 6 1012.7 1012.7 3.0
16/03:00am 13.4 13.6 11.9 91 0.8 SSW 2 11 1 6 1012.2 1012.2 2.8
16/02:30am 13.2 13.9 12.1 93 0.6 CALM 0 4 0 2 1011.5 1011.5 2.6
16/02:00am 13.4 11.8 11.5 88 1.0 SE 11 15 6 8 1011.7 1011.7 2.6
16/01:30am 13.7 12.0 11.2 85 1.3 SSE 11 13 6 7 1012.7 1012.7 2.6
16/01:00am 13.6 13.9 12.3 92 0.7 ESE 2 6 1 3 1013.1 1013.1 2.6
16/12:30am 13.5 12.6 12.6 94 0.5 E 9 11 5 6 1013.4 1013.4 2.6
16/12:00am 13.9 13.1 13.0 94 0.5 ESE 9 11 5 6 1014.0 1014.0 2.6
 
Date/Time
CDT
Temp
°C
App
Temp
°C
Dew
Point
°C
Rel
Hum
%
Delta-T
°C
Wind Press
QNH
hPa
Press
MSL
hPa
Rain since
9am
mm
Dir  Spd
km/h
Gust
km/h
Spd
kts
Gust
kts
15/11:30pm 13.9 13.5 13.0 94 0.5 SE 7 11 4 6 1014.3 1014.3 2.6
15/11:00pm 14.1 14.7 13.0 93 0.6 E 2 6 1 3 1014.7 1014.7 2.6
15/10:53pm 14.1 14.2 12.8 92 0.7 ENE 4 7 2 4 1014.3 1014.3 2.6
15/10:41pm 14.0 13.5 12.7 92 0.7 ENE 7 13 4 7 1014.1 1014.1 2.6
15/10:30pm 13.9 14.7 12.6 92 0.7 CALM 0 4 0 2 1014.9 1014.9 1.8
15/10:00pm 13.9 13.5 12.4 91 0.8 E 6 7 3 4 1014.9 1014.9 1.6
15/09:58pm 13.9 13.4 12.6 92 0.7 E 7 9 4 5 1015.0 1015.0 1.6
15/09:47pm 14.1 13.7 12.4 89 0.9 NNE 6 9 3 5 1015.1 1015.1 1.6
15/09:30pm 14.2 12.8 12.2 88 1.1 N 11 13 6 7 1015.6 1015.6 1.2
15/09:27pm 14.1 13.1 12.3 89 1.0 N 9 13 5 7 1015.5 1015.5 1.2
15/09:05pm 14.4 15.2 12.4 88 1.1 CALM 0 0 0 0 1015.5 1015.5 0.6
15/09:00pm 14.4 15.0 11.8 84 1.4 CALM 0 0 0 0 1014.8 1014.8 0.0
15/08:30pm 14.6 14.9 11.0 79 1.9 CALM 0 6 0 3 1014.8 1014.8 0.0
15/08:00pm 14.7 11.7 10.5 76 2.2 S 17 24 9 13 1014.3 1014.3 0.0
15/07:30pm 14.7 11.0 10.3 75 2.3 SSW 20 30 11 16 1014.1 1014.1 0.0
15/07:12pm 14.8 10.8 10.4 75 2.3 SW 22 33 12 18 1014.1 1014.1 0.0
15/07:00pm 15.3 14.9 11.0 75 2.3 SSW 4 9 2 5 1013.6 1013.6 0.0
15/06:30pm 15.0 12.8 10.8 76 2.2 SSW 13 17 7 9 1013.8 1013.8 0.0
15/06:00pm 15.7 12.2 11.0 73 2.5 S 20 30 11 16 1013.8 1013.8 0.0
15/05:30pm 14.8 11.5 11.0 78 2.0 SW 19 26 10 14 1014.2 1014.2 0.0
15/05:00pm 15.0 12.3 10.2 73 2.5 SSW 15 19 8 10 1013.7 1013.7 0.0
15/04:30pm 15.1 12.9 10.8 75 2.3 WSW 13 19 7 10 1013.9 1013.9 0.0
15/04:00pm 16.2 14.2 10.3 68 3.1 S 11 15 6 8 1013.5 1013.5 0.0
15/03:30pm 14.9 12.3 9.5 70 2.8 S 13 17 7 9 1014.5 1014.5 0.0
15/03:00pm 15.1 11.2 9.5 69 2.9 SW 20 28 11 15 1015.0 1015.0 0.0
15/02:30pm 15.2 11.3 9.4 68 3.0 SW 20 28 11 15 1014.8 1014.8 0.0
15/02:00pm 15.2 10.2 9.6 69 2.9 SW 26 30 14 16 1014.8 1014.8 0.0
15/01:30pm 15.3 10.9 8.8 65 3.3 WSW 22 28 12 15 1014.8 1014.8 0.0
15/01:00pm 16.5 12.7 9.1 61 3.8 SW 19 26 10 14 1014.8 1014.8 0.0

Latest Capital City Observations: Canberra | Sydney | Melbourne | Brisbane | Adelaide | Perth | Hobart | Darwin

Other formats

Comma delimited format used in spreadsheet applications
http://www.bom.gov.au/fwo/IDS60901/IDS60901.94672.axf

JavaScript Object Notation format (JSON) in row-major order
http://www.bom.gov.au/fwo/IDS60901/IDS60901.94672.json

Data quality

Most of these data are generated automatically and are frequently updated. Quality checks on data are not normally performed. It is possible for incorrect values to appear. Refer to information at About Latest Weather Observations and please check the disclaimer before using these data.